Tasman Sea — WDB5559 — position and weather

sailwx.info

Track history (hours):
 
Tides and Currents Weather Stations Pressure Air Temp Water Temp Dewpoint Dewpoint Depression Visibility Wind Speed Wind Dir Waves Ship Positions

Tasman Sea

Owner: Kirby Offshore Marine, LLC, Staten Island, NY. More information available from US FCC via Universal Licensing System and Coast Guard Vessel Documentation Center.

Last reported at 2016-Feb-08 18:33 UTC. Time now 2016-Feb-11 23:25 UTC.
Position N 36°54' W 075°55'.

Length 38 m; draft 5 m.

Type: Ship (hazmat cat B). MMSI: 366910960.

Date/timePositionNaut miles runAvg speedWind from/ knotsBaromVisibWave heightAir tempDewpointWater temp
2016-Feb-08 18:33N 36°54' W 075°55'7 6.7
2016-Feb-08 17:34N 36°57' W 076°03'15 0.6
2016-Feb-07 17:28N 36°57' W 076°21'12 5.1
2016-Feb-07 15:05N 36°58' W 076°06'4 7.3
2016-Feb-07 14:33N 36°57' W 076°01'8 7.2
2016-Feb-07 13:30N 36°57' W 075°52'98 6.5
2016-Feb-06 22:32N 38°25' W 074°58'6 6.1
2016-Feb-06 21:33N 38°31' W 074°58'6 6.1
2016-Feb-06 20:33N 38°37' W 074°59'6 6.4
2016-Feb-06 19:33N 38°43' W 074°60'8 7.7
2016-Feb-06 18:33N 38°50' W 075°04'8 7.7
2016-Feb-06 17:33N 38°58' W 075°07'8 8.1
2016-Feb-06 16:33N 39°05' W 075°11'8 7.7
2016-Feb-06 15:33N 39°12' W 075°17'7 6.7
2016-Feb-06 14:33N 39°17' W 075°22'5 5.4
2016-Feb-06 13:33N 39°21' W 075°26'5 4.5
2016-Feb-06 12:33N 39°24' W 075°30'4 4.3
2016-Feb-06 11:33N 39°28' W 075°34'5 5.2
2016-Feb-06 10:33N 39°33' W 075°33'6 5.9
2016-Feb-06 09:33N 39°39' W 075°33'8 8.1
2016-Feb-06 08:33N 39°46' W 075°28'8 7.8
2016-Feb-06 07:33N 39°51' W 075°20'4 4.1
2016-Feb-06 06:33N 39°51' W 075°15'0 0.0
2016-Feb-06 05:15N 39°51' W 075°15'0 0.0
2016-Feb-06 04:30N 39°51' W 075°15'0 0.0
2016-Feb-06 03:33N 39°51' W 075°15'0 0.0
2016-Feb-06 02:33N 39°51' W 075°15'0 0.0
2016-Feb-06 01:27N 39°51' W 075°15'0 0.0
2016-Feb-06 00:33N 39°51' W 075°15'0 0.0
2016-Feb-05 22:27N 39°51' W 075°15'0 0.0
2016-Feb-05 19:30N 39°51' W 075°15'0 0.0
2016-Feb-05 18:30N 39°51' W 075°15'0 0.0
2016-Feb-05 17:30N 39°51' W 075°15'0 0.0
2016-Feb-05 16:24N 39°51' W 075°15'0 0.0
2016-Feb-05 15:33N 39°51' W 075°15'0 0.0
2016-Feb-05 14:30N 39°51' W 075°15'0 0.0
2016-Feb-05 13:30N 39°51' W 075°15'0 0.0
2016-Feb-05 12:30N 39°51' W 075°15'0 0.0
2016-Feb-05 11:33N 39°51' W 075°15'0 0.0
2016-Feb-05 10:24N 39°51' W 075°15'0 0.0
2016-Feb-05 09:33N 39°51' W 075°15'0 0.0
2016-Feb-05 08:21N 39°51' W 075°15'0 0.0
2016-Feb-05 07:33N 39°51' W 075°15'0 0.0
2016-Feb-05 06:30N 39°51' W 075°15'0 0.0
2016-Feb-05 05:33N 39°51' W 075°15'0 0.0
2016-Feb-05 04:30N 39°51' W 075°15'0 0.0
2016-Feb-05 03:30N 39°51' W 075°15'0 0.0
2016-Feb-05 02:30N 39°51' W 075°15'0 0.0
2016-Feb-05 01:27N 39°51' W 075°15'0 0.0
2016-Feb-05 00:34N 39°51' W 075°15'0 0.3
2016-Feb-04 23:34N 39°51' W 075°15'8 8.1
2016-Feb-04 22:33N 39°48' W 075°25'8 7.9
2016-Feb-04 21:34N 39°42' W 075°31'7 6.7
2016-Feb-04 20:34N 39°35' W 075°34'7 6.5
2016-Feb-04 19:34N 39°29' W 075°34'6 6.3
2016-Feb-04 18:34N 39°24' W 075°29'6 6.0
2016-Feb-04 17:34N 39°19' W 075°24'6 6.1
2016-Feb-04 16:34N 39°15' W 075°19'6 6.3
2016-Feb-04 15:34N 39°09' W 075°15'7 6.8
2016-Feb-04 14:34N 39°03' W 075°10'7 6.8
2016-Feb-04 13:34N 38°57' W 075°07'8 7.6
2016-Feb-04 12:34N 38°50' W 075°03'7 7.1
2016-Feb-04 11:34N 38°49' W 074°54'48 7.6
2016-Feb-04 05:15N 39°24' W 074°13'5 7.4
2016-Feb-04 04:33N 39°29' W 074°10'7 7.5
2016-Feb-04 03:33N 39°35' W 074°05'8 7.5
2016-Feb-04 02:33N 39°42' W 074°01'8 7.5
2016-Feb-04 01:33N 39°49' W 073°58'43 7.0
2016-Feb-03 19:29N 40°32' W 074°01'7 7.7
2016-Feb-03 18:34N 40°39' W 074°03'2 2.2
2016-Feb-03 17:34N 40°39' W 074°06'0 0.1
2016-Feb-03 12:33N 40°39' W 074°06'0 0.2
2016-Feb-03 10:33N 40°39' W 074°07'0 0.0
2016-Feb-03 09:33N 40°39' W 074°07'0 0.0
2016-Feb-03 08:33N 40°39' W 074°07'0 0.0
2016-Feb-03 07:33N 40°39' W 074°07'3 3.1
2016-Feb-03 06:33N 40°40' W 074°03'2 2.3
2016-Feb-03 05:33N 40°37' W 074°03'9 8.6
2016-Feb-03 04:33N 40°30' W 073°57'203 7.8
2016-Feb-02 02:33N 42°43' W 070°32'9 9.2
2016-Feb-02 01:33N 42°51' W 070°37'  
2016-Jan-29 20:17N 42°27' W 070°45'5 7.3
2016-Jan-29 19:33N 42°24' W 070°51'7 6.6
2016-Jan-29 18:33N 42°20' W 070°58'  
Track history (hours):
 
Tides and Currents Weather Stations Pressure Air Temp Water Temp Dewpoint Dewpoint Depression Visibility Wind Speed Wind Dir Waves Ship Positions

Tasman Sea

Owner: Kirby Offshore Marine, LLC, Staten Island, NY. More information available from US FCC via Universal Licensing System and Coast Guard Vessel Documentation Center.

Last reported at 2016-Feb-08 18:33 UTC. Time now 2016-Feb-11 23:25 UTC.
Position N 36°54' W 075°55'.

Length 38 m; draft 5 m.

Type: Ship (hazmat cat B). MMSI: 366910960.

Date/timePositionNaut miles runAvg speedWind from/ knotsBaromVisibWave heightAir tempDewpointWater temp
2016-Feb-08 18:33N 36°54' W 075°55'7 6.7
2016-Feb-08 17:34N 36°57' W 076°03'15 0.6
2016-Feb-07 17:28N 36°57' W 076°21'12 5.1
2016-Feb-07 15:05N 36°58' W 076°06'4 7.3
2016-Feb-07 14:33N 36°57' W 076°01'8 7.2
2016-Feb-07 13:30N 36°57' W 075°52'98 6.5
2016-Feb-06 22:32N 38°25' W 074°58'6 6.1
2016-Feb-06 21:33N 38°31' W 074°58'6 6.1
2016-Feb-06 20:33N 38°37' W 074°59'6 6.4
2016-Feb-06 19:33N 38°43' W 074°60'8 7.7
2016-Feb-06 18:33N 38°50' W 075°04'8 7.7
2016-Feb-06 17:33N 38°58' W 075°07'8 8.1
2016-Feb-06 16:33N 39°05' W 075°11'8 7.7
2016-Feb-06 15:33N 39°12' W 075°17'7 6.7
2016-Feb-06 14:33N 39°17' W 075°22'5 5.4
2016-Feb-06 13:33N 39°21' W 075°26'5 4.5
2016-Feb-06 12:33N 39°24' W 075°30'4 4.3
2016-Feb-06 11:33N 39°28' W 075°34'5 5.2
2016-Feb-06 10:33N 39°33' W 075°33'6 5.9
2016-Feb-06 09:33N 39°39' W 075°33'8 8.1
2016-Feb-06 08:33N 39°46' W 075°28'8 7.8
2016-Feb-06 07:33N 39°51' W 075°20'4 4.1
2016-Feb-06 06:33N 39°51' W 075°15'0 0.0
2016-Feb-06 05:15N 39°51' W 075°15'0 0.0
2016-Feb-06 04:30N 39°51' W 075°15'0 0.0
2016-Feb-06 03:33N 39°51' W 075°15'0 0.0
2016-Feb-06 02:33N 39°51' W 075°15'0 0.0
2016-Feb-06 01:27N 39°51' W 075°15'0 0.0
2016-Feb-06 00:33N 39°51' W 075°15'0 0.0
2016-Feb-05 22:27N 39°51' W 075°15'0 0.0
2016-Feb-05 19:30N 39°51' W 075°15'0 0.0
2016-Feb-05 18:30N 39°51' W 075°15'0 0.0
2016-Feb-05 17:30N 39°51' W 075°15'0 0.0
2016-Feb-05 16:24N 39°51' W 075°15'0 0.0
2016-Feb-05 15:33N 39°51' W 075°15'0 0.0
2016-Feb-05 14:30N 39°51' W 075°15'0 0.0
2016-Feb-05 13:30N 39°51' W 075°15'0 0.0
2016-Feb-05 12:30N 39°51' W 075°15'0 0.0
2016-Feb-05 11:33N 39°51' W 075°15'0 0.0
2016-Feb-05 10:24N 39°51' W 075°15'0 0.0
2016-Feb-05 09:33N 39°51' W 075°15'0 0.0
2016-Feb-05 08:21N 39°51' W 075°15'0 0.0
2016-Feb-05 07:33N 39°51' W 075°15'0 0.0
2016-Feb-05 06:30N 39°51' W 075°15'0 0.0
2016-Feb-05 05:33N 39°51' W 075°15'0 0.0
2016-Feb-05 04:30N 39°51' W 075°15'0 0.0
2016-Feb-05 03:30N 39°51' W 075°15'0 0.0
2016-Feb-05 02:30N 39°51' W 075°15'0 0.0
2016-Feb-05 01:27N 39°51' W 075°15'0 0.0
2016-Feb-05 00:34N 39°51' W 075°15'0 0.3
2016-Feb-04 23:34N 39°51' W 075°15'8 8.1
2016-Feb-04 22:33N 39°48' W 075°25'8 7.9
2016-Feb-04 21:34N 39°42' W 075°31'7 6.7
2016-Feb-04 20:34N 39°35' W 075°34'7 6.5
2016-Feb-04 19:34N 39°29' W 075°34'6 6.3
2016-Feb-04 18:34N 39°24' W 075°29'6 6.0
2016-Feb-04 17:34N 39°19' W 075°24'6 6.1
2016-Feb-04 16:34N 39°15' W 075°19'6 6.3
2016-Feb-04 15:34N 39°09' W 075°15'7 6.8
2016-Feb-04 14:34N 39°03' W 075°10'7 6.8
2016-Feb-04 13:34N 38°57' W 075°07'8 7.6
2016-Feb-04 12:34N 38°50' W 075°03'7 7.1
2016-Feb-04 11:34N 38°49' W 074°54'48 7.6
2016-Feb-04 05:15N 39°24' W 074°13'5 7.4
2016-Feb-04 04:33N 39°29' W 074°10'7 7.5
2016-Feb-04 03:33N 39°35' W 074°05'8 7.5
2016-Feb-04 02:33N 39°42' W 074°01'8 7.5
2016-Feb-04 01:33N 39°49' W 073°58'43 7.0
2016-Feb-03 19:29N 40°32' W 074°01'7 7.7
2016-Feb-03 18:34N 40°39' W 074°03'2 2.2
2016-Feb-03 17:34N 40°39' W 074°06'0 0.1
2016-Feb-03 12:33N 40°39' W 074°06'0 0.2
2016-Feb-03 10:33N 40°39' W 074°07'0 0.0
2016-Feb-03 09:33N 40°39' W 074°07'0 0.0
2016-Feb-03 08:33N 40°39' W 074°07'0 0.0
2016-Feb-03 07:33N 40°39' W 074°07'3 3.1
2016-Feb-03 06:33N 40°40' W 074°03'2 2.3
2016-Feb-03 05:33N 40°37' W 074°03'9 8.6
2016-Feb-03 04:33N 40°30' W 073°57'203 7.8
2016-Feb-02 02:33N 42°43' W 070°32'9 9.2
2016-Feb-02 01:33N 42°51' W 070°37'  
2016-Jan-29 20:17N 42°27' W 070°45'5 7.3
2016-Jan-29 19:33N 42°24' W 070°51'7 6.6
2016-Jan-29 18:33N 42°20' W 070°58'  

Dump ship's entire track history